createdAt,value
2022-09-12T00:01:36.622Z,99969.03
2022-09-12T00:04:03.552Z,99958.00
2022-09-12T00:06:36.062Z,99964.81
2022-09-12T00:09:13.453Z,99960.06
2022-09-12T00:11:42.629Z,99954.69
2022-09-12T00:14:13.348Z,99955.34
2022-09-12T00:16:42.821Z,99956.41
2022-09-12T00:19:10.468Z,99959.25
2022-09-12T00:21:39.321Z,99932.16
2022-09-12T00:24:06.475Z,99953.47
2022-09-12T00:26:33.153Z,99897.16
2022-09-12T00:28:59.782Z,99954.06
2022-09-12T00:31:32.490Z,99956.28
2022-09-12T00:34:03.050Z,99928.94
2022-09-12T00:36:35.015Z,99950.94
2022-09-12T00:39:16.752Z,99951.13
2022-09-12T00:41:44.280Z,99953.91
2022-09-12T00:44:10.793Z,99942.84
2022-09-12T00:46:58.993Z,99942.41
2022-09-12T00:49:37.446Z,99946.88
2022-09-12T00:52:13.152Z,99945.19
2022-09-12T00:55:03.127Z,99937.38
2022-09-12T00:57:34.700Z,99950.69
2022-09-12T01:00:13.670Z,99910.66
2022-09-12T01:02:41.473Z,99927.53
2022-09-12T01:05:08.847Z,99934.53
2022-09-12T01:07:40.006Z,99873.00
2022-09-12T01:10:09.678Z,99934.53
2022-09-12T01:12:39.292Z,99910.09
2022-09-12T01:15:06.431Z,99926.91
2022-09-12T01:18:04.927Z,99905.72
2022-09-12T01:20:57.848Z,99923.91
2022-09-12T01:24:18.712Z,99919.44
2022-09-12T01:26:57.596Z,99912.91
2022-09-12T01:29:42.426Z,99910.19
2022-09-12T01:32:47.768Z,99912.31
2022-09-12T01:35:22.830Z,99912.63
2022-09-12T01:37:56.709Z,99912.78
2022-09-12T01:40:50.085Z,99918.28
2022-09-12T01:43:35.203Z,99919.41
2022-09-12T01:46:07.525Z,99923.31
2022-09-12T01:48:52.873Z,99900.09
2022-09-12T01:51:26.243Z,99921.47
2022-09-12T01:54:05.771Z,99910.97
2022-09-12T01:56:36.194Z,99926.78
2022-09-12T01:59:10.524Z,99919.63
2022-09-12T02:01:47.355Z,99913.06
2022-09-12T02:04:19.789Z,99909.81
2022-09-12T02:06:52.221Z,99911.22
2022-09-12T02:09:23.787Z,99907.63
2022-09-12T02:11:55.805Z,99892.50
2022-09-12T02:14:26.631Z,99899.75
2022-09-12T02:17:06.024Z,99902.22
2022-09-12T02:19:45.613Z,99898.81
2022-09-12T02:22:21.568Z,99903.69
2022-09-12T02:24:52.745Z,99888.94
2022-09-12T02:27:32.904Z,99897.56
2022-09-12T02:30:00.023Z,99888.09
2022-09-12T02:32:59.064Z,99890.50
2022-09-12T02:35:50.498Z,99881.25
2022-09-12T02:38:23.087Z,99892.81
2022-09-12T02:40:49.727Z,99865.34
2022-09-12T02:43:16.524Z,99888.09
2022-09-12T02:45:43.291Z,99883.22
2022-09-12T02:48:26.755Z,99887.81
2022-09-12T02:50:53.891Z,99885.16
2022-09-12T02:53:21.131Z,99876.59
2022-09-12T02:55:50.081Z,99854.03
2022-09-12T02:58:21.084Z,99882.34
2022-09-12T03:00:54.883Z,99874.28
2022-09-12T03:03:43.209Z,99877.47
2022-09-12T03:06:21.566Z,99872.31
2022-09-12T03:08:54.819Z,99872.03
2022-09-12T03:11:31.416Z,99811.72
2022-09-12T03:14:02.352Z,99877.94
2022-09-12T03:16:51.177Z,99878.53
2022-09-12T03:19:39.234Z,99883.34
2022-09-12T03:22:33.642Z,99876.72
2022-09-12T03:25:13.984Z,99835.81
2022-09-12T03:27:52.641Z,99881.63
2022-09-12T03:30:19.279Z,99884.84
2022-09-12T03:32:48.802Z,99879.72
2022-09-12T03:35:22.716Z,99859.03
2022-09-12T03:37:51.103Z,99881.09
2022-09-12T03:40:18.115Z,99879.56
2022-09-12T03:42:44.688Z,99884.09
2022-09-12T03:45:11.875Z,99853.69
2022-09-12T03:47:38.514Z,99868.22
2022-09-12T03:50:06.526Z,99865.88
2022-09-12T03:52:33.319Z,99881.50
2022-09-12T03:55:00.230Z,99850.41
2022-09-12T03:57:56.708Z,99876.91
2022-09-12T04:00:24.781Z,99878.09
2022-09-12T04:02:56.881Z,99886.63
2022-09-12T04:05:24.992Z,99886.41
2022-09-12T04:07:52.227Z,99872.63
2022-09-12T04:10:18.878Z,99857.16
2022-09-12T04:12:45.541Z,99862.91
2022-09-12T04:15:12.199Z,99864.28
2022-09-12T04:17:38.808Z,99873.34
2022-09-12T04:20:06.175Z,99878.84
2022-09-12T04:22:33.284Z,99881.31
2022-09-12T04:24:59.938Z,99841.91
2022-09-12T04:27:26.601Z,99884.47
2022-09-12T04:29:54.754Z,99861.44
2022-09-12T04:32:22.190Z,99879.09
2022-09-12T04:34:49.363Z,99822.63
2022-09-12T04:37:16.809Z,99857.78
2022-09-12T04:39:43.496Z,99843.63
2022-09-12T04:42:10.128Z,99871.44
2022-09-12T04:44:37.468Z,99869.50
2022-09-12T04:47:04.159Z,99869.22
2022-09-12T04:49:30.807Z,99874.09
2022-09-12T04:51:57.640Z,99850.97
2022-09-12T04:54:24.216Z,99857.31
2022-09-12T04:56:51.516Z,99860.88
2022-09-12T04:59:20.161Z,99866.53
2022-09-12T05:01:46.820Z,99852.66
2022-09-12T05:04:14.162Z,99868.94
2022-09-12T05:06:41.974Z,99862.44
2022-09-12T05:09:11.849Z,99868.84
2022-09-12T05:12:03.323Z,99865.19
2022-09-12T05:14:27.454Z,99868.31
2022-09-12T05:16:54.127Z,99877.59
2022-09-12T05:19:20.855Z,99840.81
2022-09-12T05:21:47.443Z,99879.66
2022-09-12T05:24:14.074Z,99844.38
2022-09-12T05:26:40.680Z,99873.09
2022-09-12T05:29:07.386Z,99865.16
2022-09-12T05:31:34.763Z,99842.75
2022-09-12T05:34:01.451Z,99840.59
2022-09-12T05:36:30.276Z,99886.13
2022-09-12T05:38:57.496Z,99884.81
2022-09-12T05:41:26.364Z,99867.38
2022-09-12T05:43:55.381Z,99850.78
2022-09-12T05:46:25.603Z,99880.38
2022-09-12T05:48:56.465Z,99869.66
2022-09-12T05:51:26.445Z,99876.78
2022-09-12T05:53:58.495Z,99884.63
2022-09-12T05:56:30.604Z,99871.50
2022-09-12T05:59:02.461Z,99882.28
2022-09-12T06:01:31.308Z,99871.16
2022-09-12T06:04:01.552Z,99880.22
2022-09-12T06:06:29.673Z,99859.91
2022-09-12T06:09:01.805Z,99880.69
2022-09-12T06:11:30.811Z,99879.69
2022-09-12T06:13:59.961Z,99876.84
2022-09-12T06:16:29.111Z,99872.97
2022-09-12T06:18:58.066Z,99867.66
2022-09-12T06:21:27.440Z,99882.59
2022-09-12T06:23:55.474Z,99874.44
2022-09-12T06:26:23.676Z,99859.69
2022-09-12T06:28:56.872Z,99881.72
2022-09-12T06:31:30.501Z,99879.72
2022-09-12T06:34:00.765Z,99888.81
2022-09-12T06:36:30.589Z,99881.88
2022-09-12T06:39:00.759Z,99878.44
2022-09-12T06:41:29.065Z,99874.56
2022-09-12T06:43:56.145Z,99858.97
2022-09-12T06:46:23.287Z,99868.81
2022-09-12T06:48:50.487Z,99872.59
2022-09-12T06:51:18.753Z,99848.47
2022-09-12T06:53:47.011Z,99857.94
2022-09-12T06:56:21.449Z,99839.88
2022-09-12T06:58:50.311Z,99856.25
2022-09-12T07:01:22.383Z,99856.31
2022-09-12T07:03:55.034Z,99861.66
2022-09-12T07:06:31.410Z,99833.22
2022-09-12T07:08:59.918Z,99855.88
2022-09-12T07:11:32.147Z,99843.00
2022-09-12T07:14:00.789Z,99819.91
2022-09-12T07:16:28.181Z,99801.13
2022-09-12T07:18:58.182Z,99813.34
2022-09-12T07:21:24.909Z,99839.59
2022-09-12T07:23:52.039Z,99844.91
2022-09-12T07:26:18.995Z,99840.38
2022-09-12T07:28:45.688Z,99839.28
2022-09-12T07:31:16.334Z,99846.78
2022-09-12T07:33:43.997Z,99853.03
2022-09-12T07:36:13.021Z,99846.34
2022-09-12T07:38:40.967Z,99830.63
2022-09-12T07:41:28.292Z,99851.69
2022-09-12T07:43:59.680Z,99847.03
2022-09-12T07:46:29.075Z,99837.88
2022-09-12T07:48:57.429Z,99846.94
2022-09-12T07:51:25.671Z,99835.66
2022-09-12T07:53:52.549Z,99836.97
2022-09-12T07:56:21.106Z,99824.16
2022-09-12T07:58:48.437Z,99843.34
2022-09-12T08:01:20.907Z,99840.22
2022-09-12T08:03:49.101Z,99838.91
2022-09-12T08:06:25.945Z,99844.41
2022-09-12T08:08:55.131Z,99837.25
2022-09-12T08:11:23.151Z,99842.91
2022-09-12T08:13:55.434Z,99838.63
2022-09-12T08:16:24.875Z,99842.81
2022-09-12T08:18:51.687Z,99832.41
2022-09-12T08:21:21.404Z,99841.84
2022-09-12T08:23:52.727Z,99848.25
2022-09-12T08:26:19.526Z,99846.78
2022-09-12T08:28:46.866Z,99845.69
2022-09-12T08:31:16.064Z,99847.94
2022-09-12T08:33:42.954Z,99837.16
2022-09-12T08:36:13.932Z,99852.59
2022-09-12T08:38:45.358Z,99851.00
2022-09-12T08:41:11.970Z,99848.84
2022-09-12T08:44:07.075Z,99847.56
2022-09-12T08:47:22.068Z,99848.91
2022-09-12T08:50:10.798Z,99839.13
2022-09-12T08:52:58.473Z,99821.81
2022-09-12T08:55:33.336Z,99831.34
2022-09-12T08:58:05.108Z,99834.88
2022-09-12T09:00:45.052Z,99815.94
2022-09-12T09:03:50.344Z,99825.16
2022-09-12T09:06:39.200Z,99820.00
2022-09-12T09:09:20.109Z,99821.00
2022-09-12T09:12:05.129Z,99828.56
2022-09-12T09:14:49.012Z,99823.81
2022-09-12T09:17:41.876Z,99824.69
2022-09-12T09:20:24.062Z,99829.56
2022-09-12T09:22:55.118Z,99820.34
2022-09-12T09:25:35.968Z,99811.28
2022-09-12T09:28:07.680Z,99814.03
2022-09-12T09:30:35.930Z,99816.91
2022-09-12T09:33:05.079Z,99817.50
2022-09-12T09:36:03.791Z,99809.72
2022-09-12T09:38:45.866Z,99818.97
2022-09-12T09:41:34.241Z,99809.84
2022-09-12T09:44:01.169Z,99812.94
2022-09-12T09:46:28.421Z,99821.50
2022-09-12T09:48:59.193Z,99812.88
2022-09-12T09:51:28.240Z,99813.56
2022-09-12T09:54:01.573Z,99804.47
2022-09-12T09:56:40.214Z,99802.03
2022-09-12T09:59:33.666Z,99797.47
2022-09-12T10:02:03.463Z,99797.28
2022-09-12T10:04:39.254Z,99796.53
2022-09-12T10:07:19.270Z,99798.78
2022-09-12T10:10:04.375Z,99788.84
2022-09-12T10:12:31.396Z,99797.81
2022-09-12T10:15:00.608Z,99796.03
2022-09-12T10:17:51.373Z,99781.47
2022-09-12T10:20:46.503Z,99780.81
2022-09-12T10:23:37.440Z,99751.97
2022-09-12T10:26:10.647Z,99767.47
2022-09-12T10:28:40.522Z,99765.34
2022-09-12T10:31:09.561Z,99763.34
2022-09-12T10:33:43.990Z,99771.53
2022-09-12T10:36:11.089Z,99768.00
2022-09-12T10:38:37.956Z,99734.63
2022-09-12T10:41:09.315Z,99752.41
2022-09-12T10:43:38.487Z,99771.16
2022-09-12T10:46:17.193Z,99766.75
2022-09-12T10:48:48.509Z,99758.56
2022-09-12T10:51:35.435Z,99763.78
2022-09-12T10:54:05.952Z,99756.97
2022-09-12T10:56:38.598Z,99745.13
2022-09-12T10:59:40.563Z,99752.09
2022-09-12T11:02:15.016Z,99751.69
2022-09-12T11:05:09.634Z,99751.47
2022-09-12T11:07:48.565Z,99739.94
2022-09-12T11:10:18.244Z,99736.78
2022-09-12T11:12:56.914Z,99734.41
2022-09-12T11:15:32.550Z,99738.25
2022-09-12T11:18:10.029Z,99730.69
2022-09-12T11:20:42.934Z,99718.03
2022-09-12T11:23:46.109Z,99697.13
2022-09-12T11:26:20.657Z,99692.19
2022-09-12T11:28:50.329Z,99713.19
2022-09-12T11:31:28.960Z,99706.06
2022-09-12T11:33:58.494Z,99672.41
2022-09-12T11:36:46.836Z,99692.91
2022-09-12T11:39:16.559Z,99700.97
2022-09-12T11:41:49.757Z,99682.91
2022-09-12T11:44:26.189Z,99692.09
2022-09-12T11:46:52.847Z,99694.88
2022-09-12T11:49:53.357Z,99694.34
2022-09-12T11:52:22.254Z,99690.28
2022-09-12T11:55:17.039Z,99677.69
2022-09-12T11:57:53.164Z,99683.84
2022-09-12T12:00:36.273Z,99679.59
2022-09-12T12:03:14.787Z,99688.28
2022-09-12T12:06:05.945Z,99681.69
2022-09-12T12:08:39.488Z,99683.75
2022-09-12T12:11:08.079Z,99676.19
2022-09-12T12:13:49.812Z,99659.53
2022-09-12T12:16:34.899Z,99666.88
2022-09-12T12:19:10.548Z,99633.69
2022-09-12T12:21:45.105Z,99664.84
2022-09-12T12:24:14.029Z,99667.50
2022-09-12T12:26:40.665Z,99661.91
2022-09-12T12:29:16.286Z,99653.19
2022-09-12T12:31:58.526Z,99648.41
2022-09-12T12:34:28.089Z,99648.50
2022-09-12T12:36:55.133Z,99647.41
2022-09-12T12:39:33.720Z,99647.13
2022-09-12T12:42:01.581Z,99634.09
2022-09-12T12:44:49.115Z,99614.66
2022-09-12T12:47:36.556Z,99621.03
2022-09-12T12:50:21.774Z,99629.50
2022-09-12T12:52:54.593Z,99620.28
2022-09-12T12:55:44.156Z,99612.91
2022-09-12T12:58:36.313Z,99603.50
2022-09-12T13:01:17.089Z,99605.25
2022-09-12T13:03:53.087Z,99602.09
2022-09-12T13:06:31.043Z,99588.50
2022-09-12T13:09:06.615Z,99596.44
2022-09-12T13:11:38.963Z,99595.69
2022-09-12T13:14:26.644Z,99579.19
2022-09-12T13:16:56.523Z,99582.59
2022-09-12T13:19:38.017Z,99586.03
2022-09-12T13:22:44.784Z,99584.50
2022-09-12T13:25:25.807Z,99581.41
2022-09-12T13:28:02.212Z,99586.19
2022-09-12T13:30:32.728Z,99581.75
2022-09-12T13:33:09.741Z,99558.88
2022-09-12T13:36:21.509Z,99570.63
2022-09-12T13:39:02.216Z,99544.22
2022-09-12T13:41:54.880Z,99565.97
2022-09-12T13:44:23.637Z,99551.19
2022-09-12T13:46:51.877Z,99560.34
2022-09-12T13:49:42.392Z,99559.75
2022-09-12T13:52:17.799Z,99560.91
2022-09-12T13:54:48.465Z,99561.16
2022-09-12T13:57:30.646Z,99553.50
2022-09-12T13:59:58.926Z,99552.41
2022-09-12T14:02:28.842Z,99545.13
2022-09-12T14:05:11.980Z,99510.19
2022-09-12T14:07:54.342Z,99526.81
2022-09-12T14:10:28.131Z,99540.81
2022-09-12T14:12:57.217Z,99537.09
2022-09-12T14:15:27.355Z,99539.34
2022-09-12T14:18:01.292Z,99540.22
2022-09-12T14:20:33.924Z,99534.22
2022-09-12T14:23:27.495Z,99526.91
2022-09-12T14:25:56.309Z,99527.88
2022-09-12T14:28:23.959Z,99527.50
2022-09-12T14:31:02.099Z,99521.16
2022-09-12T14:33:33.658Z,99503.81
2022-09-12T14:36:09.529Z,99533.31
2022-09-12T14:38:48.411Z,99523.38
2022-09-12T14:41:24.248Z,99520.84
2022-09-12T14:43:56.308Z,99521.72
2022-09-12T14:46:44.339Z,99511.47
2022-09-12T14:49:27.773Z,99510.50
2022-09-12T14:51:57.278Z,99512.41
2022-09-12T14:54:37.221Z,99508.38
2022-09-12T14:57:30.545Z,99490.69
2022-09-12T15:00:14.288Z,99507.00
2022-09-12T15:02:45.311Z,99503.44
2022-09-12T15:05:11.928Z,99492.59
2022-09-12T15:07:38.499Z,99494.22
2022-09-12T15:10:35.856Z,99492.44
2022-09-12T15:13:08.228Z,99495.41
2022-09-12T15:15:39.016Z,99500.31
2022-09-12T15:18:06.715Z,99487.00
2022-09-12T15:20:37.029Z,99460.38
2022-09-12T15:23:38.065Z,99484.63
2022-09-12T15:26:04.912Z,99480.53
2022-09-12T15:28:32.764Z,99467.81
2022-09-12T15:31:05.676Z,99482.72
2022-09-12T15:33:32.485Z,99459.00
2022-09-12T15:35:59.108Z,99469.88
2022-09-12T15:38:26.836Z,99433.63
2022-09-12T15:40:54.624Z,99474.38
2022-09-12T15:43:23.128Z,99466.72
2022-09-12T15:45:51.724Z,99434.03
2022-09-12T15:48:20.590Z,99463.38
2022-09-12T15:50:47.321Z,99428.84
2022-09-12T15:53:16.788Z,99453.63
2022-09-12T15:55:44.054Z,99459.16
2022-09-12T15:58:11.272Z,99456.63
2022-09-12T16:00:40.162Z,99431.16
2022-09-12T16:03:06.965Z,99448.06
2022-09-12T16:05:34.345Z,99446.34
2022-09-12T16:08:01.189Z,99436.56
2022-09-12T16:10:30.373Z,99453.28
2022-09-12T16:12:57.761Z,99447.59
2022-09-12T16:15:25.860Z,99433.75
2022-09-12T16:17:53.874Z,99446.75
2022-09-12T16:20:22.184Z,99449.31
2022-09-12T16:22:49.135Z,99424.88
2022-09-12T16:25:15.969Z,99444.31
2022-09-12T16:27:44.388Z,99441.69
2022-09-12T16:30:11.564Z,99439.84
2022-09-12T16:32:38.283Z,99452.63
2022-09-12T16:35:05.592Z,99435.00
2022-09-12T16:37:34.433Z,99437.94
2022-09-12T16:40:02.456Z,99439.47
2022-09-12T16:42:29.922Z,99430.25
2022-09-12T16:44:56.548Z,99423.66
2022-09-12T16:47:23.307Z,99407.44
2022-09-12T16:49:51.174Z,99418.31
2022-09-12T16:52:19.200Z,99412.00
2022-09-12T16:54:45.825Z,99405.94
2022-09-12T16:57:19.706Z,99420.00
2022-09-12T16:59:46.302Z,99421.81
2022-09-12T17:02:18.541Z,99417.56
2022-09-12T17:04:45.171Z,99422.84
2022-09-12T17:07:12.216Z,99405.69
2022-09-12T17:09:38.845Z,99415.84
2022-09-12T17:12:05.635Z,99420.75
2022-09-12T17:14:32.335Z,99413.19
2022-09-12T17:16:59.021Z,99418.41
2022-09-12T17:19:29.499Z,99408.13
2022-09-12T17:21:57.583Z,99427.59
2022-09-12T17:24:24.471Z,99424.53
2022-09-12T17:26:51.991Z,99440.50
2022-09-12T17:29:18.843Z,99412.03
2022-09-12T17:31:46.417Z,99440.69
2022-09-12T17:34:14.419Z,99443.38
2022-09-12T17:36:44.291Z,99447.22
2022-09-12T17:39:12.909Z,99443.38
2022-09-12T17:41:41.683Z,99444.38
2022-09-12T17:44:11.389Z,99433.94
2022-09-12T17:46:38.644Z,99447.25
2022-09-12T17:49:16.750Z,99454.56
2022-09-12T17:51:43.908Z,99433.00
2022-09-12T17:54:16.247Z,99454.84
2022-09-12T17:56:45.455Z,99447.84
2022-09-12T17:59:18.531Z,99438.94
2022-09-12T18:02:04.306Z,99450.81
2022-09-12T18:04:31.664Z,99420.03
2022-09-12T18:07:00.295Z,99443.50
2022-09-12T18:09:28.054Z,99463.22
2022-09-12T18:11:55.213Z,99462.91
2022-09-12T18:14:22.854Z,99462.03
2022-09-12T18:16:50.273Z,99458.50
2022-09-12T18:19:17.311Z,99463.06
2022-09-12T18:21:44.286Z,99470.84
2022-09-12T18:24:11.641Z,99468.06
2022-09-12T18:26:38.570Z,99460.16
2022-09-12T18:29:05.379Z,99468.22
2022-09-12T18:31:33.442Z,99469.78
2022-09-12T18:34:00.939Z,99469.97
2022-09-12T18:36:28.875Z,99465.84
2022-09-12T18:39:15.426Z,99473.31
2022-09-12T18:41:42.132Z,99462.34
2022-09-12T18:44:11.448Z,99481.41
2022-09-12T18:46:38.605Z,99481.75
2022-09-12T18:49:05.671Z,99472.66
2022-09-12T18:51:35.809Z,99475.28
2022-09-12T18:54:08.743Z,99462.44
2022-09-12T18:56:38.352Z,99479.16
2022-09-12T18:59:06.921Z,99479.75
2022-09-12T19:01:38.464Z,99482.69
2022-09-12T19:04:07.297Z,99482.34
2022-09-12T19:06:39.545Z,99483.41
2022-09-12T19:09:20.563Z,99464.16
2022-09-12T19:11:50.415Z,99441.19
2022-09-12T19:14:20.528Z,99482.72
2022-09-12T19:16:47.156Z,99482.56
2022-09-12T19:19:13.827Z,99472.41
2022-09-12T19:21:41.975Z,99482.28
2022-09-12T19:24:10.086Z,99484.66
2022-09-12T19:26:38.873Z,99476.28
2022-09-12T19:29:31.716Z,99447.19
2022-09-12T19:31:58.324Z,99485.53
2022-09-12T19:34:25.013Z,99462.13
2022-09-12T19:36:51.731Z,99418.22
2022-09-12T19:39:19.537Z,99456.84
2022-09-12T19:41:46.780Z,99459.97
2022-09-12T19:44:14.220Z,99480.63
2022-09-12T19:46:40.986Z,99446.81
2022-09-12T19:49:09.224Z,99470.41
2022-09-12T19:51:35.927Z,99468.94
2022-09-12T19:54:02.959Z,99470.06
2022-09-12T19:56:29.613Z,99453.84
2022-09-12T19:58:56.923Z,99460.00
2022-09-12T20:01:28.746Z,99446.72
2022-09-12T20:03:56.598Z,99430.91
2022-09-12T20:06:23.494Z,99461.38
2022-09-12T20:08:50.173Z,99467.50
2022-09-12T20:11:19.030Z,99441.25
2022-09-12T20:13:46.517Z,99432.84
2022-09-12T20:16:21.673Z,99460.31
2022-09-12T20:18:53.308Z,99458.13
2022-09-12T20:21:24.845Z,99469.22
2022-09-12T20:23:51.594Z,99460.81
2022-09-12T20:26:20.113Z,99452.34
2022-09-12T20:28:46.783Z,99468.13
2022-09-12T20:31:15.572Z,99449.66
2022-09-12T20:33:42.944Z,99458.84
2022-09-12T20:36:14.847Z,99447.91
2022-09-12T20:38:46.232Z,99440.84
2022-09-12T20:41:12.904Z,99432.47
2022-09-12T20:43:40.093Z,99452.47
2022-09-12T20:46:11.486Z,99447.13
2022-09-12T20:48:39.498Z,99452.00
2022-09-12T20:51:07.269Z,99458.28
2022-09-12T20:53:35.293Z,99445.25
2022-09-12T20:56:03.407Z,99455.13
2022-09-12T20:58:30.061Z,99455.69
2022-09-12T21:00:57.126Z,99460.31
2022-09-12T21:03:25.335Z,99456.38
2022-09-12T21:05:52.311Z,99452.53
2022-09-12T21:08:18.928Z,99439.84
2022-09-12T21:10:45.592Z,99461.13
2022-09-12T21:13:13.346Z,99454.72
2022-09-12T21:15:41.177Z,99453.09
2022-09-12T21:18:07.988Z,99451.56
2022-09-12T21:20:34.718Z,99416.25
2022-09-12T21:23:01.562Z,99450.69
2022-09-12T21:25:29.904Z,99441.25
2022-09-12T21:27:56.599Z,99432.19
2022-09-12T21:30:23.260Z,99438.81
2022-09-12T21:32:49.871Z,99447.59
2022-09-12T21:35:16.661Z,99446.56
2022-09-12T21:38:01.535Z,99422.53
2022-09-12T21:40:28.144Z,99441.50
2022-09-12T21:42:54.724Z,99435.34
2022-09-12T21:45:21.317Z,99438.28
2022-09-12T21:47:48.655Z,99429.41
2022-09-12T21:50:15.686Z,99442.50
2022-09-12T21:52:42.381Z,99417.84
2022-09-12T21:55:09.573Z,99429.63
2022-09-12T21:57:36.450Z,99423.13
2022-09-12T22:00:06.436Z,99434.25
2022-09-12T22:02:34.875Z,99425.38
2022-09-12T22:05:07.811Z,99392.34
2022-09-12T22:07:34.539Z,99418.78
2022-09-12T22:10:01.125Z,99415.06
2022-09-12T22:12:28.651Z,99423.31
2022-09-12T22:14:55.891Z,99419.59
2022-09-12T22:17:25.123Z,99421.97
2022-09-12T22:19:51.820Z,99412.31
2022-09-12T22:22:37.014Z,99412.91
2022-09-12T22:25:04.088Z,99405.28
2022-09-12T22:27:30.892Z,99393.06
2022-09-12T22:29:57.487Z,99400.91
2022-09-12T22:32:26.675Z,99405.66
2022-09-12T22:34:53.345Z,99394.22
2022-09-12T22:37:20.848Z,99406.69
2022-09-12T22:39:47.483Z,99403.88
2022-09-12T22:42:14.295Z,99414.56
2022-09-12T22:44:40.880Z,99406.25
2022-09-12T22:47:07.485Z,99434.44
2022-09-12T22:49:34.169Z,99425.47
2022-09-12T22:52:00.944Z,99398.09
2022-09-12T22:54:27.902Z,99431.91
2022-09-12T22:56:54.489Z,99389.78
2022-09-12T22:59:21.135Z,99404.13
2022-09-12T23:01:48.016Z,99410.28
2022-09-12T23:04:14.590Z,99400.34
2022-09-12T23:06:41.239Z,99412.28
2022-09-12T23:09:07.850Z,99415.75
2022-09-12T23:11:34.459Z,99421.69
2022-09-12T23:14:01.099Z,99413.31
2022-09-12T23:16:28.405Z,99410.84
2022-09-12T23:18:55.119Z,99398.97
2022-09-12T23:21:24.880Z,99372.31
2022-09-12T23:23:51.542Z,99380.94
2022-09-12T23:26:21.549Z,99402.59
2022-09-12T23:28:53.765Z,99393.78
2022-09-12T23:31:21.646Z,99406.75
2022-09-12T23:33:49.952Z,99408.34
2022-09-12T23:36:16.577Z,99377.56
2022-09-12T23:38:45.194Z,99394.09
2022-09-12T23:41:13.401Z,99402.34
2022-09-12T23:43:40.483Z,99392.22
2022-09-12T23:46:07.430Z,99393.13
2022-09-12T23:48:34.743Z,99391.31
2022-09-12T23:51:02.070Z,99389.84
2022-09-12T23:53:29.296Z,99395.53
2022-09-12T23:55:55.943Z,99381.31
2022-09-12T23:58:22.807Z,99403.03
